Time;durP1;ratioP1;P1;durP2;ratioP2;P2;SDS_P1;SDS_P2;PMS_P1;PMS_P2;Temp;Humidity;BMP_temperature;BMP_pressure;BME280_temperature;BME280_humidity;BME280_pressure;Samples;Min_cycle;Max_cycle;Signal;HPM_P1;HPM_P2
2022/05/03 00:01:28;;;;;;;6.85;6.65;;;7.10;99.90;;;;;;4193856;28;20079;-85
2022/05/03 00:03:44;;;;;;;7.57;7.28;;;7.20;99.90;;;;;;4194259;28;20059;-85
2022/05/03 00:05:57;;;;;;;8.73;8.18;;;7.20;99.90;;;;;;4186404;28;20087;-85
2022/05/03 00:08:15;;;;;;;6.63;6.35;;;7.20;99.90;;;;;;4168363;28;20425;-86
2022/05/03 00:10:50;;;;;;;7.20;6.68;;;7.20;99.90;;;;;;4194488;28;20036;-86
2022/05/03 00:13:11;;;;;;;6.18;5.97;;;7.10;99.90;;;;;;4169911;28;20060;-85
2022/05/03 00:15:16;;;;;;;6.68;6.57;;;7.00;99.90;;;;;;4178412;28;20083;-85
2022/05/03 00:17:19;;;;;;;7.53;6.97;;;6.80;99.90;;;;;;4191026;28;20044;-85
2022/05/03 00:19:22;;;;;;;7.35;7.03;;;6.70;99.90;;;;;;4176025;28;20052;-85
2022/05/03 00:21:24;;;;;;;7.38;6.80;;;6.70;99.90;;;;;;4176250;28;20037;-85
2022/05/03 00:23:26;;;;;;;6.93;6.72;;;6.60;99.90;;;;;;4193804;28;20044;-85
2022/05/03 00:25:30;;;;;;;6.68;6.30;;;6.60;99.90;;;;;;4192806;28;20044;-85
2022/05/03 00:27:34;;;;;;;7.35;7.05;;;6.50;99.90;;;;;;4175561;28;20709;-84
2022/05/03 00:29:36;;;;;;;7.45;7.20;;;6.50;99.90;;;;;;4191375;28;20036;-85
2022/05/03 00:31:38;;;;;;;7.70;7.05;;;6.50;99.90;;;;;;4185575;28;20165;-85
2022/05/03 00:33:41;;;;;;;7.57;7.15;;;6.50;99.90;;;;;;4178114;28;20064;-85
2022/05/03 00:35:44;;;;;;;8.48;7.88;;;6.40;99.90;;;;;;4142797;28;20069;-85
2022/05/03 00:37:47;;;;;;;7.22;7.03;;;6.40;99.90;;;;;;4190513;28;20125;-85
2022/05/03 00:39:49;;;;;;;6.65;6.45;;;6.50;99.90;;;;;;4174617;28;20547;-85
2022/05/03 00:42:02;;;;;;;7.05;6.80;;;6.70;99.90;;;;;;4194052;28;20052;-84
2022/05/03 00:46:47;;;;;;;6.10;5.90;;;6.70;99.90;;;;;;4192251;28;20399;-85
2022/05/03 00:49:07;;;;;;;6.13;6.03;;;6.70;99.90;;;;;;4192252;28;20106;-84
2022/05/03 00:51:15;;;;;;;6.72;6.53;;;6.70;99.90;;;;;;4190050;28;20043;-85
2022/05/03 00:53:38;;;;;;;6.80;6.50;;;6.70;99.90;;;;;;4175924;28;20642;-85
2022/05/03 00:56:04;;;;;;;5.53;5.30;;;6.70;99.90;;;;;;4176115;28;20033;-85
2022/05/03 00:58:37;;;;;;;6.32;6.22;;;6.70;99.90;;;;;;4188567;28;20036;-85
2022/05/03 01:00:53;;;;;;;6.30;6.03;;;6.80;99.90;;;;;;4159870;28;20068;-84
2022/05/03 01:03:07;;;;;;;7.75;7.43;;;6.60;99.90;;;;;;4185632;28;20043;-83
2022/05/03 01:05:10;;;;;;;7.13;6.93;;;6.60;99.90;;;;;;4191344;28;20664;-83
2022/05/03 01:07:31;;;;;;;7.13;6.57;;;6.50;99.90;;;;;;4191939;28;20408;-83
2022/05/03 01:09:51;;;;;;;5.28;5.15;;;6.60;99.90;;;;;;4182442;28;20061;-83
2022/05/03 01:12:22;;;;;;;5.80;5.70;;;6.70;99.90;;;;;;4187323;28;20068;-83
2022/05/03 01:14:44;;;;;;;5.07;4.88;;;6.70;99.90;;;;;;4175675;28;20568;-83
2022/05/03 01:17:05;;;;;;;6.70;6.50;;;6.70;99.90;;;;;;4176547;28;20068;-83
2022/05/03 01:19:32;;;;;;;5.53;5.43;;;6.60;99.90;;;;;;4174294;28;20033;-83
2022/05/03 01:22:13;;;;;;;5.82;5.63;;;6.40;99.90;;;;;;4180398;28;20041;-83
2022/05/03 01:24:48;;;;;;;6.03;5.78;;;6.20;99.90;;;;;;4146535;28;20060;-83
2022/05/03 01:27:16;;;;;;;6.18;5.97;;;6.00;99.90;;;;;;4179843;28;20037;-83
2022/05/03 01:29:28;;;;;;;7.32;6.85;;;5.90;99.90;;;;;;4143774;28;20067;-83
2022/05/03 01:31:30;;;;;;;6.07;5.97;;;5.90;99.90;;;;;;4171767;28;20042;-83
2022/05/03 01:33:43;;;;;;;6.18;5.80;;;6.00;99.90;;;;;;4159081;28;20051;-83
2022/05/03 01:35:49;;;;;;;;;;;5.80;99.90;;;;;;4190410;28;20111;-83
2022/05/03 01:38:03;;;;;;;6.82;6.55;;;5.80;99.90;;;;;;4176722;28;20007;-83
2022/05/03 01:40:07;;;;;;;6.47;6.07;;;5.80;99.90;;;;;;4175386;28;20156;-83
2022/05/03 01:42:28;;;;;;;5.60;5.47;;;5.90;99.90;;;;;;4175111;28;20041;-83
2022/05/03 01:44:48;;;;;;;7.18;6.68;;;5.90;99.90;;;;;;4175524;28;20044;-83
2022/05/03 01:47:04;;;;;;;7.25;7.05;;;5.80;99.90;;;;;;4178865;28;20444;-83
2022/05/03 01:51:49;;;;;;;6.28;6.05;;;5.80;99.90;;;;;;4182850;28;20199;-83
2022/05/03 01:54:22;;;;;;;5.88;5.68;;;5.80;99.90;;;;;;4188725;28;20079;-83
2022/05/03 01:57:08;;;;;;;5.65;5.55;;;5.80;99.90;;;;;;4142388;28;20107;-83
2022/05/03 01:59:36;;;;;;;5.72;5.55;;;5.70;99.90;;;;;;4169134;28;20048;-83
2022/05/03 02:01:50;;;;;;;5.75;5.57;;;5.70;99.90;;;;;;4153355;28;20531;-83
2022/05/03 02:04:16;;;;;;;5.82;5.68;;;5.70;99.90;;;;;;4172793;28;20041;-83
2022/05/03 02:06:48;;;;;;;5.38;5.18;;;5.80;99.90;;;;;;4184655;28;20082;-83
2022/05/03 02:09:21;;;;;;;6.35;6.15;;;5.90;99.90;;;;;;4149895;28;20476;-83
2022/05/03 02:11:53;;;;;;;5.13;4.82;;;5.70;99.90;;;;;;4194003;28;20052;-83
2022/05/03 02:16:29;;;;;;;6.47;6.28;;;5.80;99.90;;;;;;4181167;28;20092;-83
2022/05/03 02:18:46;;;;;;;5.82;5.63;;;5.80;99.90;;;;;;4190440;28;20067;-83
2022/05/03 02:20:51;;;;;;;6.00;5.80;;;5.90;99.90;;;;;;4194543;28;20075;-83
2022/05/03 02:23:12;;;;;;;6.53;5.35;;;5.90;99.90;;;;;;4177977;28;20127;-82
2022/05/03 02:25:26;;;;;;;5.63;5.45;;;5.80;99.90;;;;;;4194011;28;20127;-83
2022/05/03 02:27:32;;;;;;;5.97;5.88;;;5.80;99.90;;;;;;4187989;28;20152;-83
2022/05/03 02:29:44;;;;;;;5.28;5.07;;;5.80;99.90;;;;;;4195445;28;20036;-83
2022/05/03 02:32:03;;;;;;;6.25;5.97;;;5.90;99.90;;;;;;4194370;28;20051;-83
2022/05/03 02:34:26;;;;;;;6.68;6.40;;;5.90;99.90;;;;;;4194079;28;20136;-83
2022/05/03 02:36:30;;;;;;;6.50;6.23;;;5.80;99.90;;;;;;4178025;28;20377;-83
2022/05/03 02:38:46;;;;;;;5.43;5.18;;;5.60;99.90;;;;;;4194971;28;20300;-83
2022/05/03 02:40:53;;;;;;;6.05;5.85;;;5.30;99.90;;;;;;4177992;28;20092;-82
2022/05/03 02:42:58;;;;;;;9.43;6.35;;;5.20;99.90;;;;;;4176250;28;20076;-83
2022/05/03 02:45:01;;;;;;;6.15;6.05;;;5.20;99.90;;;;;;4177531;28;20072;-83
2022/05/03 02:47:08;;;;;;;6.47;6.28;;;5.20;99.90;;;;;;4197889;28;20075;-82
2022/05/03 02:49:19;;;;;;;6.07;5.88;;;5.30;99.90;;;;;;4181507;28;20047;-82
2022/05/03 02:51:29;;;;;;;7.68;7.25;;;5.20;99.90;;;;;;4189543;28;20051;-82
2022/05/03 02:53:46;;;;;;;6.57;6.45;;;5.20;99.90;;;;;;4197088;28;20033;-82
2022/05/03 02:55:51;;;;;;;7.25;6.90;;;5.20;99.90;;;;;;4181075;28;20041;-82
2022/05/03 02:58:27;;;;;;;7.00;6.70;;;5.20;99.90;;;;;;4177983;28;20170;-82
2022/05/03 03:03:00;;;;;;;6.05;5.95;;;5.20;99.90;;;;;;4196237;28;20115;-82
2022/05/03 03:05:07;;;;;;;7.03;6.55;;;5.30;99.90;;;;;;4192945;28;20040;-83
2022/05/03 03:07:17;;;;;;;6.45;6.13;;;5.40;99.90;;;;;;4190262;28;20963;-82
2022/05/03 03:09:25;;;;;;;6.13;5.93;;;5.40;99.90;;;;;;4192804;28;20037;-82
2022/05/03 03:11:53;;;;;;;6.47;6.28;;;5.40;99.90;;;;;;4165824;28;20068;-83
2022/05/03 03:14:08;;;;;;;6.65;6.45;;;5.40;99.90;;;;;;4173952;28;20045;-83
2022/05/03 03:16:13;;;;;;;5.90;5.65;;;5.30;99.90;;;;;;4192723;28;20492;-83
2022/05/03 03:18:20;;;;;;;6.68;6.45;;;5.30;99.90;;;;;;4172216;28;20098;-83
2022/05/03 03:20:27;;;;;;;7.00;6.63;;;5.30;99.90;;;;;;4184625;28;20076;-83
2022/05/03 03:22:40;;;;;;;6.50;6.20;;;5.50;99.90;;;;;;4192438;28;20044;-82
2022/05/03 03:24:43;;;;;;;7.07;6.88;;;5.30;99.90;;;;;;4168906;28;20075;-83
2022/05/03 03:26:47;;;;;;;6.40;6.20;;;5.30;99.90;;;;;;4191595;28;20064;-83
2022/05/03 03:28:52;;;;;;;6.40;6.13;;;5.30;99.90;;;;;;4193354;28;20083;-83
2022/05/03 03:30:55;;;;;;;5.60;5.50;;;5.50;99.90;;;;;;4180505;28;20113;-82
2022/05/03 03:32:58;;;;;;;5.28;5.18;;;5.50;99.90;;;;;;4194503;28;20133;-82
2022/05/03 03:35:01;;;;;;;6.05;5.85;;;5.50;99.90;;;;;;4194026;28;20036;-82
2022/05/03 03:37:07;;;;;;;5.22;5.03;;;5.50;99.90;;;;;;4160367;28;20441;-82
2022/05/03 03:39:10;;;;;;;6.03;5.63;;;5.50;99.90;;;;;;4159090;28;20426;-82
2022/05/03 03:41:12;;;;;;;7.30;6.03;;;5.50;99.90;;;;;;4194534;28;20052;-82
2022/05/03 03:43:21;;;;;;;6.00;5.63;;;5.50;99.90;;;;;;4183085;28;20080;-82
2022/05/03 03:45:23;;;;;;;6.63;6.22;;;5.60;99.90;;;;;;4167846;28;20060;-82
2022/05/03 03:47:27;;;;;;;6.07;5.88;;;5.60;99.90;;;;;;4160389;28;20049;-82
2022/05/03 03:49:30;;;;;;;4.72;4.63;;;5.60;99.90;;;;;;4178597;28;20541;-82
2022/05/03 03:51:32;;;;;;;5.72;5.63;;;5.50;99.90;;;;;;4163081;28;20041;-82
2022/05/03 03:53:34;;;;;;;6.90;6.47;;;5.20;99.90;;;;;;4194839;28;20122;-83
2022/05/03 03:55:37;;;;;;;7.20;6.80;;;4.90;99.90;;;;;;4184345;28;20037;-83
2022/05/03 03:57:40;;;;;;;7.13;7.00;;;5.00;99.90;;;;;;4193077;28;20029;-83
2022/05/03 03:59:42;;;;;;;6.70;6.38;;;4.90;99.90;;;;;;4159917;28;20152;-83
2022/05/03 04:01:45;;;;;;;7.97;7.53;;;5.00;99.90;;;;;;4186200;28;20079;-83
2022/05/03 04:03:48;;;;;;;6.65;6.10;;;4.90;99.90;;;;;;4168481;28;20116;-82
2022/05/03 04:05:50;;;;;;;;;;;5.00;99.90;;;;;;4175448;28;20036;-83
2022/05/03 04:07:54;;;;;;;7.03;6.63;;;4.90;99.90;;;;;;4192464;28;20011;-82
2022/05/03 04:09:56;;;;;;;7.30;7.07;;;4.80;99.90;;;;;;4190896;28;20040;-82
2022/05/03 04:12:01;;;;;;;7.78;7.65;;;4.80;99.90;;;;;;4179875;28;20029;-82
2022/05/03 04:14:03;;;;;;;6.80;6.55;;;4.90;99.90;;;;;;4158436;28;20046;-82
2022/05/03 04:16:06;;;;;;;8.55;8.15;;;4.90;99.90;;;;;;4192693;28;20072;-82
2022/05/03 04:18:09;;;;;;;7.18;6.97;;;4.90;99.90;;;;;;4174063;28;20665;-82
2022/05/03 04:20:18;;;;;;;8.18;7.80;;;4.80;99.90;;;;;;4186130;28;20064;-83
2022/05/03 04:22:24;;;;;;;6.15;5.95;;;4.80;99.90;;;;;;4186898;28;20099;-82
2022/05/03 04:24:26;;;;;;;7.13;6.93;;;4.70;99.90;;;;;;4189930;28;20067;-82
2022/05/03 04:26:30;;;;;;;8.15;7.85;;;4.80;99.90;;;;;;4192132;28;20098;-82
2022/05/03 04:28:32;;;;;;;8.52;8.02;;;4.90;99.90;;;;;;4191101;28;20036;-82
2022/05/03 04:30:34;;;;;;;8.95;8.60;;;5.00;99.90;;;;;;4175047;28;20125;-83
2022/05/03 04:32:36;;;;;;;8.70;8.45;;;5.10;99.90;;;;;;4176204;28;20567;-83
2022/05/03 04:34:38;;;;;;;8.45;8.05;;;5.00;99.90;;;;;;4193051;28;20528;-82
2022/05/03 04:36:40;;;;;;;6.63;6.53;;;4.80;99.90;;;;;;4174168;28;20603;-82
2022/05/03 04:38:42;;;;;;;7.28;6.93;;;4.70;99.90;;;;;;4174688;28;20037;-83
2022/05/03 04:40:44;;;;;;;8.05;7.85;;;4.60;99.90;;;;;;4175759;28;20083;-82
2022/05/03 04:42:46;;;;;;;7.25;6.85;;;4.60;99.90;;;;;;4191410;28;20079;-82
2022/05/03 04:44:48;;;;;;;6.22;6.13;;;4.60;99.90;;;;;;4192800;28;20041;-83
2022/05/03 04:46:50;;;;;;;8.10;7.90;;;4.60;99.90;;;;;;4201312;28;20194;-82
2022/05/03 04:48:52;;;;;;;8.68;8.25;;;4.60;99.90;;;;;;4207524;28;20064;-82
2022/05/03 04:50:54;;;;;;;7.78;7.57;;;4.60;99.90;;;;;;4193150;28;20047;-82
2022/05/03 04:52:57;;;;;;;7.80;7.32;;;4.60;99.90;;;;;;4192182;28;20036;-82
2022/05/03 04:54:59;;;;;;;9.50;7.38;;;4.60;99.90;;;;;;4178629;28;20060;-82
2022/05/03 04:57:04;;;;;;;7.88;7.68;;;4.60;99.90;;;;;;4175697;28;20041;-82
2022/05/03 04:59:06;;;;;;;8.18;7.85;;;4.70;99.90;;;;;;4192455;28;20071;-82
2022/05/03 05:01:08;;;;;;;7.28;7.00;;;4.70;99.90;;;;;;4172206;28;20076;-83
2022/05/03 05:03:11;;;;;;;8.05;7.82;;;4.70;99.90;;;;;;4188183;28;20103;-82
2022/05/03 05:05:13;;;;;;;6.60;6.28;;;4.80;99.90;;;;;;4174513;28;20111;-82
2022/05/03 05:07:15;;;;;;;7.40;7.30;;;4.90;99.90;;;;;;4193284;28;20052;-82
2022/05/03 05:09:17;;;;;;;6.75;6.50;;;5.00;99.90;;;;;;4179201;28;20033;-82
2022/05/03 05:11:19;;;;;;;7.50;7.10;;;5.10;99.90;;;;;;4188167;28;20067;-82
2022/05/03 05:13:21;;;;;;;6.88;6.70;;;5.20;99.90;;;;;;4188230;28;20124;-82
2022/05/03 05:15:24;;;;;;;6.75;6.55;;;5.20;99.90;;;;;;4159005;28;20045;-82
2022/05/03 05:17:26;;;;;;;7.22;7.03;;;5.40;99.90;;;;;;4175433;28;20041;-82
2022/05/03 05:19:28;;;;;;;7.45;7.07;;;5.50;99.90;;;;;;4192081;28;20063;-82
2022/05/03 05:21:30;;;;;;;7.05;6.68;;;5.60;99.90;;;;;;4188550;28;20033;-82
2022/05/03 05:23:32;;;;;;;6.63;6.10;;;5.70;99.90;;;;;;4195062;28;20041;-82
2022/05/03 05:25:34;;;;;;;5.60;5.50;;;5.70;99.90;;;;;;4196760;28;20040;-82
2022/05/03 05:27:36;;;;;;;8.27;7.97;;;5.70;99.90;;;;;;4178496;28;20048;-82
2022/05/03 05:29:38;;;;;;;8.35;8.15;;;5.80;99.90;;;;;;4192559;28;20075;-82
2022/05/03 05:31:41;;;;;;;6.72;6.30;;;5.80;99.90;;;;;;4191628;28;20060;-85
2022/05/03 05:33:44;;;;;;;8.43;7.97;;;5.90;99.90;;;;;;4178426;28;20033;-85
2022/05/03 05:35:47;;;;;;;9.55;8.85;;;6.00;99.90;;;;;;4195823;28;20420;-84
2022/05/03 05:37:49;;;;;;;9.82;9.20;;;6.00;99.90;;;;;;4195343;28;20040;-85
2022/05/03 05:39:51;;;;;;;9.50;8.88;;;6.00;99.90;;;;;;4178818;28;20048;-84
2022/05/03 05:41:55;;;;;;;;;;;6.10;99.90;;;;;;4194807;28;20051;-84
2022/05/03 05:43:57;;;;;;;8.02;7.47;;;6.10;99.90;;;;;;4188216;28;19920;-85
2022/05/03 05:46:00;;;;;;;8.07;7.78;;;6.30;99.90;;;;;;4179576;28;20116;-85
2022/05/03 05:48:04;;;;;;;6.70;6.15;;;6.30;99.90;;;;;;4195207;28;20512;-84
2022/05/03 05:50:06;;;;;;;8.05;7.85;;;6.30;99.90;;;;;;4153365;28;20129;-84
2022/05/03 05:54:29;;;;;;;8.45;8.00;;;6.30;99.90;;;;;;4190548;28;20068;-85
2022/05/03 05:56:31;;;;;;;7.72;7.53;;;6.40;99.90;;;;;;4196576;28;20029;-85
2022/05/03 05:58:33;;;;;;;7.63;7.18;;;6.50;99.90;;;;;;4177679;28;20041;-85
2022/05/03 06:00:35;;;;;;;7.25;6.97;;;6.70;99.90;;;;;;4177511;28;20080;-85
2022/05/03 06:02:39;;;;;;;7.65;7.00;;;6.80;99.90;;;;;;4196205;28;20530;-85
2022/05/03 06:04:41;;;;;;;7.10;6.80;;;6.70;99.90;;;;;;4195802;28;20543;-85
2022/05/03 06:06:43;;;;;;;6.68;6.38;;;7.10;99.90;;;;;;4196126;28;20494;-85
2022/05/03 06:08:45;;;;;;;6.85;6.65;;;7.70;99.90;;;;;;4175994;28;20044;-85
2022/05/03 06:10:49;;;;;;;6.72;6.32;;;7.70;99.90;;;;;;4178975;28;20120;-85
2022/05/03 06:12:51;;;;;;;6.57;6.07;;;7.70;99.90;;;;;;4193845;28;20045;-85
2022/05/03 06:14:53;;;;;;;7.22;6.85;;;7.70;99.90;;;;;;4178914;28;20045;-85
2022/05/03 06:16:57;;;;;;;6.13;5.97;;;7.80;99.90;;;;;;4195279;28;20040;-85
2022/05/03 06:19:00;;;;;;;5.28;5.07;;;7.90;99.90;;;;;;4178562;28;20075;-85
2022/05/03 06:21:07;;;;;;;5.43;5.18;;;8.00;99.90;;;;;;4177330;28;20052;-85
2022/05/03 06:23:10;;;;;;;4.65;4.55;;;8.30;99.90;;;;;;4179065;28;20040;-85
2022/05/03 06:25:13;;;;;;;4.05;3.70;;;8.50;99.90;;;;;;4169825;28;20076;-85
2022/05/03 06:27:15;;;;;;;5.70;5.50;;;8.50;99.90;;;;;;4196226;28;20770;-85
2022/05/03 06:29:17;;;;;;;5.28;5.05;;;8.70;99.90;;;;;;4191597;28;20051;-86
2022/05/03 06:31:21;;;;;;;4.93;4.43;;;8.80;99.90;;;;;;4177314;28;20863;-86
2022/05/03 06:33:23;;;;;;;4.45;4.35;;;8.90;99.90;;;;;;4159766;28;20449;-86
2022/05/03 06:35:28;;;;;;;6.82;4.53;;;9.20;99.90;;;;;;4177013;28;20045;-86
2022/05/03 06:37:36;;;;;;;5.88;5.32;;;9.30;99.90;;;;;;4161301;28;20429;-86
2022/05/03 06:39:38;;;;;;;3.13;3.03;;;9.40;99.90;;;;;;4178660;28;20123;-86
2022/05/03 06:41:41;;;;;;;5.25;4.35;;;9.70;99.90;;;;;;4178252;28;20052;-86
2022/05/03 06:43:43;;;;;;;5.40;4.88;;;9.80;99.90;;;;;;4192295;28;20136;-86
2022/05/03 06:45:45;;;;;;;4.90;4.72;;;9.90;99.90;;;;;;4178494;28;20040;-86
2022/05/03 06:47:50;;;;;;;4.15;3.85;;;10.00;99.90;;;;;;4195143;28;20067;-86
2022/05/03 06:49:53;;;;;;;3.35;3.22;;;10.10;99.90;;;;;;4178533;28;20088;-86
2022/05/03 06:51:55;;;;;;;4.00;3.85;;;10.10;99.90;;;;;;4178641;28;20720;-85
2022/05/03 06:53:57;;;;;;;4.15;4.03;;;10.30;99.90;;;;;;4171862;28;20037;-85
2022/05/03 06:56:00;;;;;;;4.75;4.65;;;10.40;99.90;;;;;;4183273;28;20130;-86
2022/05/03 06:58:02;;;;;;;4.82;4.50;;;10.60;99.90;;;;;;4183124;28;20124;-86
2022/05/03 07:00:05;;;;;;;4.78;4.50;;;10.70;99.90;;;;;;4164484;28;20053;-87
2022/05/03 07:02:34;;;;;;;4.78;4.40;;;10.70;99.90;;;;;;4182752;28;20124;-86
2022/05/03 07:04:37;;;;;;;4.45;4.15;;;10.90;99.90;;;;;;4115280;28;20086;-86
2022/05/03 07:06:39;;;;;;;4.50;4.38;;;11.10;99.90;;;;;;4115723;28;20047;-87
2022/05/03 07:08:42;;;;;;;7.35;3.78;;;11.20;99.90;;;;;;4117248;28;20055;-87
2022/05/03 07:10:45;;;;;;;4.68;4.47;;;11.30;99.90;;;;;;4114596;28;20077;-87
2022/05/03 07:12:47;;;;;;;5.00;4.68;;;11.40;99.90;;;;;;4094344;29;20078;-86
2022/05/03 07:14:49;;;;;;;5.03;4.88;;;11.70;99.90;;;;;;4097750;29;20246;-87
2022/05/03 07:16:53;;;;;;;5.28;4.70;;;11.70;99.90;;;;;;4114676;28;20042;-87
2022/05/03 07:23:38;;;;;;;4.25;3.95;;;12.10;99.90;;;;;;4113303;28;20478;-88
2022/05/03 07:25:41;;;;;;;4.47;4.20;;;12.30;99.90;;;;;;4096273;29;20063;-88
2022/05/03 07:27:47;;;;;;;4.90;4.50;;;12.40;99.90;;;;;;4112093;28;20042;-87
2022/05/03 07:29:50;;;;;;;4.15;3.97;;;12.50;99.90;;;;;;4112387;28;20047;-87
2022/05/03 07:31:54;;;;;;;4.13;4.03;;;12.60;99.90;;;;;;4096159;29;20460;-87
2022/05/03 07:33:56;;;;;;;3.70;3.60;;;12.70;99.90;;;;;;4110605;28;20059;-87
2022/05/03 07:35:58;;;;;;;4.13;3.80;;;12.90;99.90;;;;;;4111900;28;20050;-87
2022/05/03 07:38:01;;;;;;;6.65;4.20;;;13.10;99.90;;;;;;4095833;29;20492;-87
2022/05/03 07:40:04;;;;;;;;;;;13.30;99.90;;;;;;4096682;29;20535;-87
2022/05/03 07:42:08;;;;;;;3.22;2.92;;;13.50;99.90;;;;;;4152751;28;19925;-87
2022/05/03 07:44:10;;;;;;;3.70;3.53;;;13.70;99.90;;;;;;4185427;28;20137;-87
2022/05/03 07:46:12;;;;;;;3.22;2.92;;;13.80;99.90;;;;;;4195570;28;20107;-87
2022/05/03 07:48:14;;;;;;;3.17;3.08;;;14.00;99.90;;;;;;4177953;28;20044;-87
2022/05/03 07:50:16;;;;;;;4.40;4.13;;;14.20;99.90;;;;;;4192993;28;20048;-87
2022/05/03 07:52:19;;;;;;;3.83;3.38;;;14.30;99.90;;;;;;4161376;28;20076;-86
2022/05/03 07:54:22;;;;;;;6.57;4.38;;;14.50;99.90;;;;;;4195109;28;20106;-87
2022/05/03 07:56:27;;;;;;;4.00;3.90;;;14.60;99.90;;;;;;4194422;28;20045;-87
2022/05/03 07:58:30;;;;;;;4.03;3.80;;;14.90;99.90;;;;;;4187474;28;20047;-87
2022/05/03 08:00:33;;;;;;;4.13;3.05;;;15.10;99.90;;;;;;4194082;28;20707;-87
2022/05/03 08:02:35;;;;;;;3.22;3.00;;;15.40;99.90;;;;;;4175970;28;20091;-87
2022/05/03 08:04:42;;;;;;;3.58;3.47;;;15.70;99.90;;;;;;4177361;28;20041;-87
2022/05/03 08:06:45;;;;;;;4.03;3.72;;;16.10;99.90;;;;;;4193577;28;20064;-87
2022/05/03 08:08:48;;;;;;;3.95;3.67;;;16.10;99.90;;;;;;4160633;28;20049;-87
2022/05/03 08:10:51;;;;;;;4.30;3.40;;;16.30;99.90;;;;;;4192773;28;20048;-87
2022/05/03 08:12:53;;;;;;;3.72;3.63;;;16.40;99.90;;;;;;4177202;28;20068;-87
2022/05/03 08:14:56;;;;;;;4.03;3.13;;;16.60;99.90;;;;;;4166771;28;20124;-87
2022/05/03 08:17:01;;;;;;;3.67;2.40;;;16.60;99.90;;;;;;4194869;28;20051;-87
2022/05/03 08:19:03;;;;;;;4.30;2.63;;;16.80;99.90;;;;;;4187120;28;20044;-86
2022/05/03 08:21:05;;;;;;;2.80;2.60;;;17.20;99.90;;;;;;4176230;28;20049;-87
2022/05/03 08:23:08;;;;;;;2.17;2.08;;;17.70;99.90;;;;;;4195162;28;20043;-87
2022/05/03 08:25:11;;;;;;;2.42;2.33;;;17.70;99.90;;;;;;4195431;28;20040;-87
2022/05/03 08:27:15;;;;;;;4.32;2.78;;;17.60;99.90;;;;;;4175114;28;20103;-87
2022/05/03 08:29:18;;;;;;;3.03;2.92;;;17.80;99.90;;;;;;4177523;28;20041;-87
2022/05/03 08:31:20;;;;;;;3.05;2.85;;;17.90;99.90;;;;;;4194639;28;20143;-87
2022/05/03 08:33:23;;;;;;;5.57;2.05;;;17.90;99.90;;;;;;4192275;28;20036;-87
2022/05/03 08:35:26;;;;;;;1.95;1.95;;;18.20;99.90;;;;;;4158862;28;20446;-88
2022/05/03 08:42:12;;;;;;;2.85;2.65;;;18.50;99.90;;;;;;4193003;28;20037;-88
2022/05/03 08:44:14;;;;;;;2.13;2.03;;;18.80;99.90;;;;;;4193341;28;20040;-88
2022/05/03 08:46:20;;;;;;;1.73;1.73;;;19.00;99.90;;;;;;4175633;28;20099;-88
2022/05/03 08:48:29;;;;;;;2.08;1.70;;;19.10;99.90;;;;;;4158936;28;20070;-88
2022/05/03 08:50:34;;;;;;;2.08;1.95;;;19.30;99.90;;;;;;4176659;28;20033;-88
2022/05/03 08:52:50;;;;;;;3.25;1.88;;;19.30;99.90;;;;;;4194409;28;20178;-88
2022/05/03 08:54:52;;;;;;;2.42;2.33;;;19.40;99.90;;;;;;4160274;28;20410;-88
2022/05/03 08:57:05;;;;;;;1.63;1.52;;;19.70;99.90;;;;;;4192051;28;20485;-88
2022/05/03 08:59:08;;;;;;;2.15;2.05;;;19.90;99.70;;;;;;4160916;28;20456;-88
2022/05/03 09:01:11;;;;;;;2.03;1.92;;;20.00;99.90;;;;;;4175122;28;20041;-88
2022/05/03 09:03:15;;;;;;;;;;;19.90;99.40;;;;;;4194750;28;20043;-88
2022/05/03 09:05:22;;;;;;;3.22;2.05;;;20.10;99.90;;;;;;4184677;28;20331;-88
2022/05/03 09:07:25;;;;;;;2.60;2.45;;;20.20;99.60;;;;;;4179049;28;20056;-88
2022/05/03 09:09:27;;;;;;;3.50;2.35;;;19.90;98.60;;;;;;4178976;28;20065;-88
2022/05/03 09:11:49;;;;;;;1.77;1.67;;;20.30;98.70;;;;;;4163080;28;20063;-88
2022/05/03 09:13:52;;;;;;;1.80;1.65;;;20.40;98.40;;;;;;4179313;28;20056;-88
2022/05/03 09:15:56;;;;;;;1.30;1.30;;;20.60;97.60;;;;;;4161885;28;20422;-88
2022/05/03 09:17:59;;;;;;;16.48;3.85;;;20.60;97.40;;;;;;4159865;28;20918;-88
2022/05/03 09:25:02;;;;;;;3.10;1.43;;;20.80;97.80;;;;;;4179272;28;20087;-89
2022/05/03 09:27:17;;;;;;;1.13;1.13;;;20.70;97.20;;;;;;4176267;28;20501;-88
2022/05/03 09:29:19;;;;;;;1.50;1.40;;;20.90;96.50;;;;;;4160374;28;20096;-88
2022/05/03 09:31:35;;;;;;;;;;;21.30;97.30;;;;;;4176532;28;20041;-88
2022/05/03 09:33:38;;;;;;;1.33;1.20;;;21.50;96.60;;;;;;4176393;28;19928;-88
2022/05/03 09:35:40;;;;;;;1.25;1.10;;;21.50;95.70;;;;;;4176116;28;20612;-88
2022/05/03 09:37:43;;;;;;;2.45;1.83;;;21.40;97.00;;;;;;4192922;28;20581;-88
2022/05/03 09:39:47;;;;;;;1.40;1.30;;;21.40;95.20;;;;;;4167525;28;20073;-88
2022/05/03 09:42:12;;;;;;;1.20;1.20;;;21.40;95.80;;;;;;4176540;28;20045;-88
2022/05/03 09:44:14;;;;;;;1.48;1.48;;;21.30;94.70;;;;;;4191552;28;20499;-89
2022/05/03 09:46:16;;;;;;;1.20;1.10;;;21.30;95.60;;;;;;4206657;28;20635;-88
2022/05/03 09:48:18;;;;;;;1.45;1.35;;;21.20;94.10;;;;;;4193060;28;20533;-88
2022/05/03 09:50:27;;;;;;;1.17;1.17;;;20.90;95.00;;;;;;4191298;28;20037;-88
2022/05/03 09:52:37;;;;;;;1.00;1.00;;;20.90;94.10;;;;;;4173504;28;20965;-88
2022/05/03 09:54:49;;;;;;;1.00;1.00;;;20.70;93.50;;;;;;4174178;28;20088;-89
2022/05/03 09:56:54;;;;;;;1.10;1.10;;;20.90;96.30;;;;;;4188985;28;20772;-88
2022/05/03 09:59:06;;;;;;;0.93;0.90;;;21.20;93.10;;;;;;4146127;28;20119;-88
2022/05/03 10:01:08;;;;;;;1.00;1.00;;;21.10;92.30;;;;;;4187788;28;20080;-88
2022/05/03 10:03:11;;;;;;;1.58;1.00;;;21.10;92.90;;;;;;4201439;28;20075;-88
2022/05/03 10:05:14;;;;;;;1.08;1.00;;;21.20;93.10;;;;;;4192192;28;20098;-89
2022/05/03 10:07:17;;;;;;;1.00;1.00;;;21.40;93.50;;;;;;4162184;28;20037;-88
2022/05/03 10:09:20;;;;;;;1.38;1.38;;;21.30;92.40;;;;;;4160847;28;20152;-88
2022/05/03 10:11:26;;;;;;;2.22;1.00;;;21.40;93.60;;;;;;4190996;28;20060;-88
2022/05/03 10:13:29;;;;;;;1.02;1.00;;;21.70;92.80;;;;;;4174630;28;20044;-88
2022/05/03 10:20:38;;;;;;;1.00;1.00;;;22.30;92.60;;;;;;4195531;28;20052;-88
2022/05/03 10:22:49;;;;;;;3.42;2.17;;;22.70;93.40;;;;;;4173283;28;20040;-88
2022/05/03 10:24:56;;;;;;;2.30;0.90;;;22.30;89.90;;;;;;4168492;28;20053;-89
2022/05/03 10:27:01;;;;;;;0.90;0.90;;;22.10;90.20;;;;;;4191627;28;20040;-88
2022/05/03 10:29:09;;;;;;;0.80;0.80;;;22.10;91.20;;;;;;4175142;28;20094;-89
2022/05/03 10:31:13;;;;;;;0.70;0.70;;;22.70;88.20;;;;;;4194057;28;20032;-89
2022/05/03 10:33:23;;;;;;;0.70;0.70;;;22.90;89.00;;;;;;4192121;28;20124;-89
2022/05/03 10:35:34;;;;;;;2.15;0.70;;;22.70;86.90;;;;;;4150255;28;20037;-89
2022/05/03 10:37:36;;;;;;;0.70;0.70;;;22.80;83.80;;;;;;4168766;28;20049;-89
2022/05/03 10:39:57;;;;;;;0.70;0.70;;;23.20;88.30;;;;;;4167969;28;20052;-89
2022/05/03 10:42:02;;;;;;;1.38;0.75;;;23.60;88.40;;;;;;4190070;28;20455;-89
2022/05/03 10:44:42;;;;;;;1.25;0.65;;;24.00;84.50;;;;;;4171390;28;20457;-88
2022/05/03 10:46:50;;;;;;;0.98;0.70;;;23.90;87.40;;;;;;4192149;28;20983;-89
2022/05/03 10:49:15;;;;;;;0.85;0.70;;;23.50;89.40;;;;;;4204662;28;20040;-88
2022/05/03 10:51:19;;;;;;;1.55;0.80;;;23.50;87.60;;;;;;4165916;28;20049;-89
2022/05/03 10:53:24;;;;;;;0.90;0.90;;;23.60;90.40;;;;;;4177338;28;20132;-89
2022/05/03 10:55:40;;;;;;;2.25;0.80;;;24.10;87.40;;;;;;4178648;28;20069;-89
2022/05/03 10:58:21;;;;;;;1.10;0.70;;;24.20;81.00;;;;;;4193631;28;20119;-89
2022/05/03 11:01:01;;;;;;;0.70;0.70;;;24.10;87.10;;;;;;4195327;28;20041;-89
2022/05/03 11:03:19;;;;;;;1.30;0.80;;;23.90;82.60;;;;;;4188876;28;20047;-89
2022/05/03 11:05:22;;;;;;;0.70;0.70;;;24.10;84.80;;;;;;4175082;28;20068;-89
2022/05/03 11:07:26;;;;;;;0.80;0.80;;;24.40;87.30;;;;;;4195529;28;20032;-88
2022/05/03 11:09:31;;;;;;;0.70;0.70;;;24.00;82.50;;;;;;4190210;28;20044;-89
2022/05/03 11:11:39;;;;;;;0.70;0.70;;;24.20;86.40;;;;;;4174561;28;20037;-89
2022/05/03 11:13:42;;;;;;;0.73;0.70;;;24.10;83.60;;;;;;4161705;28;20440;-89
2022/05/03 11:16:18;;;;;;;0.80;0.70;;;23.90;83.50;;;;;;4177988;28;20116;-89
2022/05/03 11:18:23;;;;;;;0.70;0.70;;;23.50;78.40;;;;;;4174033;28;20049;-89
2022/05/03 11:20:25;;;;;;;0.70;0.70;;;23.90;82.80;;;;;;4171675;28;20591;-91
2022/05/03 11:22:35;;;;;;;;;;;24.40;83.00;;;;;;4176777;28;20049;-90
2022/05/03 11:24:45;;;;;;;0.75;0.65;;;23.90;85.20;;;;;;4161285;28;19925;-89
2022/05/03 11:26:52;;;;;;;0.70;0.70;;;24.40;76.00;;;;;;4161921;28;20049;-89
2022/05/03 11:28:57;;;;;;;0.60;0.60;;;25.10;84.70;;;;;;4180726;28;20045;-90
2022/05/03 11:31:01;;;;;;;0.70;0.70;;;24.60;75.70;;;;;;4165636;28;20099;-89
2022/05/03 11:33:04;;;;;;;0.70;0.70;;;24.80;78.00;;;;;;4184624;28;20127;-89
2022/05/03 11:35:20;;;;;;;0.93;0.70;;;24.40;76.90;;;;;;4176648;28;20067;-89
2022/05/03 11:37:22;;;;;;;0.68;0.68;;;24.30;77.10;;;;;;4164700;28;20696;-89
2022/05/03 11:39:25;;;;;;;1.17;0.70;;;23.70;78.00;;;;;;4194355;28;20063;-90
2022/05/03 11:41:30;;;;;;;0.73;0.60;;;23.50;77.10;;;;;;4174649;28;20056;-90
2022/05/03 11:43:33;;;;;;;0.80;0.70;;;23.50;78.00;;;;;;4184760;28;20040;-90